OPO weather

Francisco de Sá Carneiro Airport
Porto, Oporto District, Portugal

Public forecast

Using degrees Celsius for public forecast. Weather courtesy of forecast.io.

Current aviation weather report (METAR) for Francisco de Sá Carneiro Airport

Retrieved 2020/04/06 08:30 UTC (13 minutes ago):

LPPR 060830Z 14006KT 9999 -RA FEW020 SCT030 14/14 Q1018

Aviation forecast (TAF) for Francisco de Sá Carneiro Airport

Retrieved 2020/04/06 06:18 UTC (2 hours ago):

TAF LPPR 060500Z 0606/0706 18005KT 8000 SCT004 BKN008 TEMPO 0606/0609 2000 DZ BR BKN002 BECMG 0609/0611 23005KT 9999 SCT018 SCT040 BECMG 0615/0618 06008KT FEW020 BKN040 TEMPO 0618/0706 8000 -RA FEW012 BKN030 BECMG 0623/0702 13008KT